Hernani, Spain
Current Conditions -  °F | °C
As of 5:00 PM on Tuesday 21 Oct 2014 (Local Time) from LESO Reporting Station
Broken Clouds Broken Clouds  
Wind Chill: 70°   Ceiling: 2700
Heat Index: 70°   Visibility: 6mi
Dew Point: 63°   Wind: 5mph
Humidity: 78%   Direction: NA
Pressure: 30.3"   Gusts: 17mph
Location:  43.27°N, 1.98°W
Report Text: LESO 211500Z VRB04G15KT 9999 SCT017 BKN027 21/17 Q1026
Loading
Personal Weather Stations






























Interactive Weather Map New forecast layout! Learn more

10-Day Weather Forecast

Advertisements
Track Severe Weather on mobile